Condicions actuals
Partly Cloudy
Conditions



Pressió:
1019.92 (hPa) - 30.12 (inHG)
Visibilitat:

10.0 (km) - 6.2 (miles)
Base de Núvols

366 (Mts) - 1200 (Feets)
   Temperatura
13  °C
Temperatura
11  °C
P. rosada
88  %
 Humitat
   Velocitat del Vent
3  km/h
2  kts
2  mph
0.9  m/s
   Wind Direction
N
45°
E
90°
135°
S
180°
225°
O
270°
315°
 210°

Oest N
Oest
   Airport Data
LEBL
Barcelona International Airport
Metar :LEBL 041830Z 21002KT 9999 FEW012 13/11 Q1020 NOSIG
Thu 4th March 19:30 pm
   Raw Metar Info
Raw METAR is the most common format in the world for the transmission of observational weather data. It is highly standardized through the International Civil Aviation Organization (ICAO), which allows it to be understood throughout most of the world.
   API Info
Data Provided by
https://www.checkwx.com/weather/LEBL

Aviation Weather providing METAR, TAF, AIRMET, SIGMET and OUTLOOK Weather Reports
   © Info
CSS/SVG/PHP scripts were developed by weather34.com for use in the weather34 template © 2015-2021

Guide Info provided by Metar-Wikipedia